Time;durP1;ratioP1;P1;durP2;ratioP2;P2;SDS_P1;SDS_P2;PMS_P1;PMS_P2;Temp;Humidity;BMP_temperature;BMP_pressure;BME280_temperature;BME280_humidity;BME280_pressure;Samples;Min_cycle;Max_cycle;Signal;HPM_P1;HPM_P2
2021/09/16 00:02:15;;;;;;;2.55;1.20;;;;;;;18.64;56.51;101433.06;4930957;28;123852;-65
2021/09/16 00:04:42;;;;;;;2.55;1.20;;;;;;;18.60;56.64;101431.56;4935617;28;115203;-65
2021/09/16 00:07:09;;;;;;;3.17;1.20;;;;;;;18.57;56.69;101421.94;4936695;28;114062;-65
2021/09/16 00:09:36;;;;;;;3.35;1.70;;;;;;;18.53;56.52;101425.75;4929700;28;124359;-65
2021/09/16 00:12:04;;;;;;;2.58;1.58;;;;;;;18.49;56.54;101430.47;4928560;28;124198;-65
2021/09/16 00:14:31;;;;;;;2.95;1.58;;;;;;;18.44;56.66;101427.28;4937286;28;114186;-65
2021/09/16 00:16:58;;;;;;;3.25;1.40;;;;;;;18.40;56.89;101435.63;4934102;28;114464;-65
2021/09/16 00:19:25;;;;;;;4.00;1.40;;;;;;;18.36;56.77;101434.97;4931343;28;124461;-65
2021/09/16 00:21:52;;;;;;;5.50;1.45;;;;;;;18.32;56.84;101438.81;4931939;28;124623;-65
2021/09/16 00:24:19;;;;;;;2.45;1.42;;;;;;;18.28;56.91;101426.59;4949581;28;113934;-65
2021/09/16 00:26:46;;;;;;;4.80;1.63;;;;;;;18.23;57.09;101434.09;4940001;28;113689;-65
2021/09/16 00:29:14;;;;;;;5.60;1.58;;;;;;;18.22;57.25;101432.38;4933620;28;124468;-65
2021/09/16 00:31:41;;;;;;;4.95;1.58;;;;;;;18.17;56.85;101434.50;4939036;28;124681;-65
2021/09/16 00:34:08;;;;;;;5.38;1.50;;;;;;;18.14;57.18;101434.72;4939118;28;115610;-65
2021/09/16 00:36:37;;;;;;;5.68;1.55;;;;;;;18.09;57.20;101433.19;4939464;28;114826;-65
2021/09/16 00:39:05;;;;;;;3.10;1.42;;;;;;;18.06;57.22;101444.16;4934651;28;124024;-65
2021/09/16 00:41:32;;;;;;;3.38;1.42;;;;;;;18.02;57.37;101431.88;4936243;28;123817;-65
2021/09/16 00:44:00;;;;;;;4.40;1.60;;;;;;;17.99;57.26;101437.47;4934362;28;114144;-65
2021/09/16 00:46:27;;;;;;;3.50;1.70;;;;;;;17.95;57.47;101435.97;4954840;28;114486;-65
2021/09/16 00:48:54;;;;;;;3.95;1.80;;;;;;;17.92;57.53;101436.16;4937626;28;124319;-65
2021/09/16 00:51:21;;;;;;;3.22;1.70;;;;;;;17.88;57.66;101440.88;4937729;28;124170;-65
2021/09/16 00:53:50;;;;;;;4.95;1.60;;;;;;;17.86;57.69;101437.44;4937830;28;114199;-65
2021/09/16 00:56:19;;;;;;;4.07;1.75;;;;;;;17.84;57.72;101433.13;4941731;28;113996;-65
2021/09/16 00:58:49;;;;;;;3.67;1.77;;;;;;;17.80;57.95;101431.56;4931626;28;124860;-65
2021/09/16 01:01:16;;;;;;;3.17;1.83;;;;;;;17.77;57.68;101432.66;4934222;28;124346;-65
2021/09/16 01:03:45;;;;;;;5.78;2.15;;;;;;;17.77;57.93;101431.78;4939476;28;114389;-65
2021/09/16 01:06:12;;;;;;;4.18;1.92;;;;;;;17.73;58.08;101425.78;4939729;28;113807;-66
2021/09/16 01:08:39;;;;;;;3.92;1.60;;;;;;;17.69;58.02;101433.16;4938755;28;124721;-65
2021/09/16 01:11:06;;;;;;;4.32;2.08;;;;;;;17.66;58.07;101430.66;4937765;28;124738;-65
2021/09/16 01:13:34;;;;;;;3.08;2.03;;;;;;;17.63;58.24;101440.72;4933827;28;114239;-65
2021/09/16 01:16:01;;;;;;;5.75;2.30;;;;;;;17.60;58.35;101441.78;4941923;28;114359;-65
2021/09/16 01:18:29;;;;;;;4.45;2.10;;;;;;;17.58;58.27;101438.34;4934887;28;124209;-65
2021/09/16 01:20:56;;;;;;;3.45;1.73;;;;;;;17.55;58.42;101433.19;4934000;28;123900;-65
2021/09/16 01:23:23;;;;;;;3.33;1.90;;;;;;;17.52;58.42;101438.75;4934456;28;115186;-65
2021/09/16 01:25:50;;;;;;;3.97;1.90;;;;;;;17.50;58.29;101446.03;4935528;28;114804;-65
2021/09/16 01:28:18;;;;;;;4.75;2.17;;;;;;;17.47;58.33;101438.19;4938299;28;123999;-65
2021/09/16 01:30:46;;;;;;;5.72;2.10;;;;;;;17.45;58.59;101442.78;4936049;28;123866;-65
2021/09/16 01:33:13;;;;;;;4.05;1.85;;;;;;;17.42;58.40;101442.97;4936298;28;114988;-65
2021/09/16 01:35:40;;;;;;;3.22;2.03;;;;;;;17.40;58.55;101450.25;4939111;28;112950;-65
2021/09/16 01:38:07;;;;;;;3.20;2.00;;;;;;;17.38;58.55;101446.81;4940114;28;123863;-65
2021/09/16 01:40:34;;;;;;;4.60;2.13;;;;;;;17.36;58.58;101448.72;4938116;28;123937;-65
2021/09/16 01:43:02;;;;;;;4.45;1.98;;;;;;;17.35;58.66;101441.63;4933586;28;114874;-65
2021/09/16 01:45:29;;;;;;;4.43;2.40;;;;;;;17.32;58.75;101438.19;4937371;28;114579;-65
2021/09/16 01:47:56;;;;;;;3.72;2.35;;;;;;;17.32;58.96;101443.56;4938401;28;124138;-65
2021/09/16 01:50:25;;;;;;;7.47;2.55;;;;;;;17.29;58.90;101449.13;4935078;28;123763;-65
2021/09/16 01:52:53;;;;;;;4.80;2.10;;;;;;;17.26;59.04;101449.31;4934269;28;114437;-65
2021/09/16 01:55:21;;;;;;;3.97;2.60;;;;;;;17.24;59.01;101456.59;4938227;28;114117;-65
2021/09/16 01:57:48;;;;;;;4.03;2.40;;;;;;;17.22;58.95;101447.78;4934726;28;123937;-65
2021/09/16 02:00:16;;;;;;;8.02;2.60;;;;;;;17.20;58.98;101449.72;4939032;28;123890;-65
2021/09/16 02:02:44;;;;;;;6.70;3.00;;;;;;;17.19;59.17;101447.97;4931197;28;114210;-65
2021/09/16 02:05:11;;;;;;;3.58;2.50;;;;;;;17.17;59.15;101438.34;4936247;28;114155;-64
2021/09/16 02:07:39;;;;;;;5.40;2.22;;;;;;;17.14;59.19;101439.41;4940336;28;123795;-64
2021/09/16 02:10:07;;;;;;;3.75;2.65;;;;;;;17.13;59.14;101440.34;4933640;28;124173;-65
2021/09/16 02:12:34;;;;;;;4.55;2.72;;;;;;;17.12;59.31;101452.88;4937038;28;115157;-64
2021/09/16 02:15:02;;;;;;;5.40;2.78;;;;;;;17.10;59.43;101453.91;4938663;28;115336;-65
2021/09/16 02:17:29;;;;;;;5.18;2.67;;;;;;;17.06;59.21;101453.22;4935555;28;124436;-65
2021/09/16 02:19:57;;;;;;;3.70;2.75;;;;;;;17.04;59.27;101459.66;4933911;28;122820;-65
2021/09/16 02:22:24;;;;;;;6.20;3.03;;;;;;;17.01;59.35;101454.47;4936553;28;114526;-65
2021/09/16 02:24:51;;;;;;;8.10;2.95;;;;;;;16.99;59.46;101461.75;4937188;28;113841;-65
2021/09/16 02:27:18;;;;;;;6.47;2.63;;;;;;;16.98;59.62;101466.25;4935084;28;123888;-65
2021/09/16 02:29:45;;;;;;;4.53;2.90;;;;;;;16.96;59.59;101461.94;4933171;28;124643;-64
2021/09/16 02:32:14;;;;;;;7.35;2.90;;;;;;;16.93;59.54;101466.53;4938354;28;96694;-65
2021/09/16 02:34:41;;;;;;;6.20;3.10;;;;;;;16.91;59.67;101460.44;4936514;28;114634;-65
2021/09/16 02:37:08;;;;;;;4.53;2.90;;;;;;;16.89;59.52;101462.31;4933651;28;123562;-65
2021/09/16 02:39:35;;;;;;;4.82;3.00;;;;;;;16.88;59.79;101460.59;4930038;28;123827;-65
2021/09/16 02:42:03;;;;;;;6.10;2.53;;;;;;;16.86;59.67;101467.03;4928911;28;114110;-65
2021/09/16 02:44:30;;;;;;;10.10;3.47;;;;;;;16.84;59.88;101464.44;4932394;28;114001;-65
2021/09/16 02:46:58;;;;;;;6.68;3.33;;;;;;;16.84;59.92;101475.13;4936026;28;123898;-65
2021/09/16 02:49:25;;;;;;;7.20;3.42;;;;;;;16.81;59.70;101472.59;4929118;28;123470;-66
2021/09/16 02:51:52;;;;;;;6.22;3.20;;;;;;;16.78;59.90;101470.09;4937039;28;114339;-65
2021/09/16 02:54:19;;;;;;;5.75;3.22;;;;;;;16.78;59.94;101470.09;4934381;28;114044;-65
2021/09/16 02:56:47;;;;;;;7.10;3.35;;;;;;;16.76;59.92;101477.38;4930919;28;123961;-65
2021/09/16 02:59:15;;;;;;;4.32;2.90;;;;;;;16.73;59.88;101478.41;4932836;28;123880;-65
2021/09/16 03:01:42;;;;;;;8.50;3.00;;;;;;;16.72;59.98;101486.53;4929339;28;115199;-65
2021/09/16 03:04:10;;;;;;;8.60;3.25;;;;;;;16.70;59.92;101483.09;4936368;28;114891;-65
2021/09/16 03:06:37;;;;;;;7.40;3.38;;;;;;;16.69;60.14;101492.09;4937706;28;124921;-65
2021/09/16 03:09:05;;;;;;;7.65;2.95;;;;;;;16.67;60.22;101493.97;4917929;28;123008;-65
2021/09/16 03:11:32;;;;;;;5.65;2.90;;;;;;;16.67;60.15;101491.28;4934317;28;114376;-65
2021/09/16 03:13:59;;;;;;;8.88;3.40;;;;;;;16.66;60.29;101487.75;4936142;28;114026;-65
2021/09/16 03:16:26;;;;;;;4.38;2.90;;;;;;;16.66;60.31;101492.25;4932965;28;124766;-65
2021/09/16 03:18:53;;;;;;;6.82;3.13;;;;;;;16.66;60.42;101497.63;4934109;28;124198;-65
2021/09/16 03:21:21;;;;;;;4.15;3.10;;;;;;;16.66;60.41;101502.97;4937706;28;114004;-65
2021/09/16 03:23:48;;;;;;;6.55;3.35;;;;;;;16.65;60.38;101506.56;4932648;28;114660;-65
2021/09/16 03:26:15;;;;;;;7.78;3.50;;;;;;;16.63;60.38;101503.13;4935733;28;123880;-65
2021/09/16 03:28:42;;;;;;;4.97;3.17;;;;;;;16.60;60.63;101498.84;4935161;28;124487;-65
2021/09/16 03:31:09;;;;;;;5.28;3.10;;;;;;;16.60;60.71;101495.31;4933581;28;114745;-65
2021/09/16 03:33:36;;;;;;;7.30;3.38;;;;;;;16.60;60.71;101498.00;4937042;28;113865;-67
2021/09/16 03:36:04;;;;;;;5.22;3.35;;;;;;;16.60;60.77;101492.63;4934117;28;123963;-67
2021/09/16 03:38:31;;;;;;;5.70;3.40;;;;;;;16.59;60.75;101491.75;4951002;28;123756;-65
2021/09/16 03:40:59;;;;;;;5.95;3.50;;;;;;;16.60;60.98;101489.97;4934960;28;113629;-65
2021/09/16 03:43:27;;;;;;;7.10;3.88;;;;;;;16.59;60.85;101493.59;4930458;28;114776;-65
2021/09/16 03:45:55;;;;;;;11.25;3.80;;;;;;;16.58;61.04;101494.56;4935377;28;124067;-65
2021/09/16 03:48:22;;;;;;;6.35;3.65;;;;;;;16.58;61.15;101494.56;4938767;28;124655;-65
2021/09/16 03:50:49;;;;;;;6.70;3.40;;;;;;;16.59;60.97;101501.59;4932630;28;116036;-65
2021/09/16 03:53:16;;;;;;;6.32;3.22;;;;;;;16.60;61.18;101503.34;4934141;28;115152;-65
2021/09/16 03:55:44;;;;;;;4.85;3.50;;;;;;;16.63;61.22;101495.13;4937894;28;124085;-65
2021/09/16 03:58:11;;;;;;;6.18;3.65;;;;;;;16.65;61.21;101502.09;4953502;28;123730;-65
2021/09/16 04:00:38;;;;;;;4.85;3.42;;;;;;;16.68;61.23;101501.91;4939851;28;113208;-65
2021/09/16 04:03:07;;;;;;;5.65;3.40;;;;;;;16.68;61.34;101501.06;4933264;28;114310;-65
2021/09/16 04:05:36;;;;;;;6.32;3.50;;;;;;;16.71;61.22;101511.59;4936206;28;124605;-65
2021/09/16 04:08:03;;;;;;;6.05;3.47;;;;;;;16.73;61.34;101509.66;4941999;28;123998;-65
2021/09/16 04:10:31;;;;;;;9.55;4.10;;;;;;;16.75;61.38;101510.44;4933940;28;114090;-65
2021/09/16 04:12:59;;;;;;;7.43;3.70;;;;;;;16.77;61.27;101511.19;4937525;28;114557;-65
2021/09/16 04:15:26;;;;;;;6.45;3.60;;;;;;;16.78;61.45;101502.19;4940108;28;124453;-65
2021/09/16 04:17:53;;;;;;;7.40;3.70;;;;;;;16.80;61.34;101511.03;4940854;28;124212;-65
2021/09/16 04:20:20;;;;;;;7.45;3.17;;;;;;;16.81;61.42;101502.03;4937016;28;114096;-65
2021/09/16 04:22:47;;;;;;;7.88;3.90;;;;;;;16.81;61.56;101507.38;4938523;28;114465;-65
2021/09/16 04:25:15;;;;;;;5.85;3.60;;;;;;;16.82;61.48;101509.16;4937723;28;123127;-65
2021/09/16 04:27:42;;;;;;;5.55;3.25;;;;;;;16.82;61.27;101514.50;4936923;28;123942;-65
2021/09/16 04:30:10;;;;;;;6.35;3.50;;;;;;;16.82;61.42;101508.22;4934554;28;114457;-65
2021/09/16 04:32:37;;;;;;;5.80;3.40;;;;;;;16.81;61.26;101502.03;4941220;28;114019;-65
2021/09/16 04:35:06;;;;;;;6.13;3.40;;;;;;;16.81;61.38;101506.53;4962324;22;123985;-67
2021/09/16 04:37:34;;;;;;;5.57;3.28;;;;;;;16.79;61.18;101514.63;4968912;28;123760;-68
2021/09/16 04:40:02;;;;;;;7.60;3.80;;;;;;;16.79;61.24;101506.63;4964216;28;115032;-68
2021/09/16 04:42:30;;;;;;;5.45;3.00;;;;;;;16.78;61.24;101507.56;4967135;28;114328;-67
2021/09/16 04:44:57;;;;;;;7.32;3.25;;;;;;;16.77;61.38;101508.53;4964058;28;123464;-68
2021/09/16 04:47:24;;;;;;;5.95;3.50;;;;;;;16.77;61.39;101511.19;4962136;28;123809;-67
2021/09/16 04:49:51;;;;;;;6.95;3.08;;;;;;;16.77;61.48;101511.19;4967906;28;114954;-68
2021/09/16 04:52:18;;;;;;;5.18;3.05;;;;;;;16.77;61.38;101521.91;4969073;28;114543;-68
2021/09/16 04:54:45;;;;;;;5.93;3.47;;;;;;;16.78;61.56;101512.91;4963643;28;124317;-68
2021/09/16 04:57:12;;;;;;;6.97;3.10;;;;;;;16.79;61.35;101513.78;4967144;28;123963;-68
2021/09/16 04:59:39;;;;;;;8.88;3.90;;;;;;;16.80;61.56;101516.38;4951097;28;115631;-68
2021/09/16 05:02:06;;;;;;;4.55;3.20;;;;;;;16.80;61.59;101511.03;4969195;28;113680;-68
2021/09/16 05:04:33;;;;;;;5.28;3.03;;;;;;;16.80;61.30;101516.38;4970708;28;124428;-68
2021/09/16 05:07:01;;;;;;;6.18;3.42;;;;;;;16.77;61.38;101505.84;4969742;28;124000;-68
2021/09/16 05:09:28;;;;;;;5.72;3.45;;;;;;;16.77;61.47;101516.56;4951790;28;114191;-68
2021/09/16 05:11:55;;;;;;;6.45;3.08;;;;;;;16.77;61.29;101515.69;4965504;28;114012;-67
2021/09/16 05:14:22;;;;;;;6.57;3.88;;;;;;;16.74;61.50;101511.38;4969351;28;124986;-67
2021/09/16 05:16:49;;;;;;;8.23;3.92;;;;;;;16.73;61.40;101520.38;4959727;28;124393;-68
2021/09/16 05:19:16;;;;;;;7.20;3.50;;;;;;;16.72;61.50;101529.34;4969468;28;114710;-68
2021/09/16 05:21:45;;;;;;;8.77;3.95;;;;;;;16.71;61.65;101527.63;4967580;28;114679;-68
2021/09/16 05:24:18;;;;;;;8.02;3.50;;;;;;;16.69;61.64;101524.19;4966834;28;124819;-68
2021/09/16 05:26:46;;;;;;;7.60;3.70;;;;;;;16.68;61.59;101534.00;4968250;28;123998;-68
2021/09/16 05:29:13;;;;;;;5.68;3.42;;;;;;;16.64;61.58;101520.91;4956481;28;115339;-68
2021/09/16 05:31:41;;;;;;;8.15;3.90;;;;;;;16.63;61.65;101524.53;4967624;28;114916;-68
2021/09/16 05:34:08;;;;;;;9.88;3.78;;;;;;;16.61;61.84;101527.28;4971722;28;123323;-68
2021/09/16 05:36:35;;;;;;;5.22;3.30;;;;;;;16.61;61.68;101537.13;4969559;28;123962;-68
2021/09/16 05:39:03;;;;;;;9.90;3.80;;;;;;;16.60;61.74;101530.09;4970302;28;114704;-68
2021/09/16 05:41:30;;;;;;;6.32;3.88;;;;;;;16.60;61.74;101540.78;4968129;28;113899;-68
2021/09/16 05:43:57;;;;;;;7.43;3.58;;;;;;;16.59;61.91;101539.03;4954611;28;123868;-68
2021/09/16 05:46:24;;;;;;;7.15;3.97;;;;;;;16.59;61.94;101544.41;4970423;28;123801;-68
2021/09/16 05:48:51;;;;;;;9.43;3.80;;;;;;;16.60;61.79;101546.13;4971984;28;114260;-66
2021/09/16 05:51:19;;;;;;;6.22;3.75;;;;;;;16.60;61.99;101551.47;4966353;28;114269;-66
2021/09/16 05:53:46;;;;;;;7.93;3.85;;;;;;;16.59;61.88;101549.75;4952212;28;124029;-66
2021/09/16 05:56:14;;;;;;;9.52;4.05;;;;;;;16.59;61.89;101555.09;4968690;28;124395;-66
2021/09/16 05:58:41;;;;;;;10.10;3.70;;;;;;;16.59;62.10;101549.75;4968960;28;114588;-66
2021/09/16 06:01:08;;;;;;;10.05;4.65;;;;;;;16.60;62.01;101551.47;4971392;28;114163;-66
2021/09/16 06:03:35;;;;;;;7.20;4.07;;;;;;;16.60;61.99;101546.13;4972382;28;124334;-66
2021/09/16 06:06:03;;;;;;;6.38;3.95;;;;;;;16.59;61.83;101555.09;4971716;28;124669;-66
2021/09/16 06:08:30;;;;;;;6.78;4.30;;;;;;;16.58;62.03;101564.09;4966351;28;114368;-66
2021/09/16 06:10:57;;;;;;;7.65;4.20;;;;;;;16.57;62.17;101562.34;4967918;28;114338;-65
2021/09/16 06:13:24;;;;;;;7.00;4.20;;;;;;;16.58;62.12;101569.44;4976757;28;124221;-65
2021/09/16 06:15:51;;;;;;;8.25;4.50;;;;;;;16.60;62.36;101564.84;4970602;28;123700;-65
2021/09/16 06:18:18;;;;;;;8.23;4.55;;;;;;;16.66;62.45;101573.34;4967309;28;115233;-66
2021/09/16 06:20:45;;;;;;;7.18;4.47;;;;;;;16.71;62.41;101565.94;4969447;28;114891;-65
2021/09/16 06:23:12;;;;;;;8.25;4.68;;;;;;;16.78;62.71;101566.41;4968190;28;124721;-65
2021/09/16 06:25:39;;;;;;;8.43;4.82;;;;;;;16.87;62.79;101565.03;4975616;28;122687;-65
2021/09/16 06:28:07;;;;;;;10.80;5.03;;;;;;;16.98;62.65;101570.59;4960897;28;113355;-65
2021/09/16 06:30:34;;;;;;;8.73;4.75;;;;;;;17.10;63.05;101566.31;4971907;28;113064;-65
2021/09/16 06:33:01;;;;;;;9.55;4.40;;;;;;;17.23;63.00;101572.63;4955367;28;123288;-65
2021/09/16 06:35:28;;;;;;;10.55;4.85;;;;;;;17.36;62.93;101574.56;4964120;28;123040;-65
2021/09/16 06:37:55;;;;;;;11.55;5.35;;;;;;;17.49;62.96;101578.22;4967913;28;114328;-65
2021/09/16 06:40:23;;;;;;;10.43;5.05;;;;;;;17.63;62.77;101580.91;4953036;28;114707;-65
2021/09/16 06:42:50;;;;;;;10.75;5.32;;;;;;;17.75;62.89;101583.75;4961566;28;124218;-65
2021/09/16 06:45:17;;;;;;;10.13;5.28;;;;;;;17.91;62.92;101584.50;4970719;28;123869;-66
2021/09/16 06:47:46;;;;;;;8.30;5.05;;;;;;;18.08;62.70;101581.63;4968694;28;114594;-67
2021/09/16 06:50:13;;;;;;;11.32;5.25;;;;;;;18.27;62.69;101577.72;4967349;28;113786;-67
2021/09/16 06:52:40;;;;;;;7.90;5.07;;;;;;;18.43;62.42;101581.13;4966834;28;124064;-67
2021/09/16 06:55:08;;;;;;;9.23;4.88;;;;;;;18.55;62.04;101583.94;4966814;28;124670;-66
2021/09/16 06:57:35;;;;;;;9.75;5.60;;;;;;;18.64;61.79;101577.97;4966490;28;114580;-66
2021/09/16 07:00:06;;;;;;;9.85;5.20;;;;;;;18.72;61.92;101575.59;4977429;28;113909;-66
2021/09/16 07:02:34;;;;;;;7.78;4.90;;;;;;;18.80;61.44;101581.38;4961128;28;124464;-66
2021/09/16 07:05:03;;;;;;;9.90;5.25;;;;;;;18.89;61.37;101565.59;4967035;28;124154;-66
2021/09/16 07:07:31;;;;;;;10.63;5.57;;;;;;;18.99;61.42;101577.44;4968103;28;115545;-66
2021/09/16 07:09:58;;;;;;;8.93;5.60;;;;;;;19.13;61.63;101573.78;4965880;28;115263;-67
2021/09/16 07:12:30;;;;;;;10.35;5.40;;;;;;;19.26;61.58;101586.22;4960833;28;124757;-67
2021/09/16 07:14:58;;;;;;;9.95;5.55;;;;;;;19.42;61.11;101595.88;4963774;28;123702;-67
2021/09/16 07:17:25;;;;;;;10.50;6.15;;;;;;;19.53;61.05;101587.94;4953514;28;113721;-67
2021/09/16 07:19:53;;;;;;;10.68;5.55;;;;;;;19.63;60.91;101594.38;4967035;28;113972;-67
2021/09/16 07:22:23;;;;;;;8.57;5.28;;;;;;;19.74;60.27;101590.09;4953519;28;123439;-67
2021/09/16 07:24:53;;;;;;;8.23;4.85;;;;;;;19.83;60.45;101594.81;4966828;28;123915;-67
2021/09/16 07:27:21;;;;;;;9.02;4.40;;;;;;;19.89;59.89;101594.38;4966145;28;113979;-67
2021/09/16 07:29:48;;;;;;;9.52;4.40;;;;;;;19.96;59.90;101601.00;4951278;28;114392;-67
2021/09/16 07:32:15;;;;;;;8.18;4.40;;;;;;;20.02;59.67;101605.97;4961610;28;124132;-66
2021/09/16 07:34:43;;;;;;;6.82;4.45;;;;;;;20.08;59.65;101598.41;4956803;28;124733;-66
2021/09/16 07:37:10;;;;;;;8.65;4.90;;;;;;;20.17;59.72;101605.78;4961757;28;114293;-66
2021/09/16 07:39:37;;;;;;;9.25;4.47;;;;;;;20.26;59.60;101602.44;4947483;28;113866;-66
2021/09/16 07:42:04;;;;;;;7.80;4.32;;;;;;;20.34;59.58;101593.78;4946909;28;124927;-66
2021/09/16 07:44:31;;;;;;;7.85;4.22;;;;;;;20.43;59.23;101596.63;4960586;28;123902;-66
2021/09/16 07:46:58;;;;;;;6.75;4.32;;;;;;;20.54;59.26;101600.38;4952584;28;114268;-66
2021/09/16 07:49:28;;;;;;;6.90;4.05;;;;;;;20.65;59.15;101596.91;4941457;28;113809;-66
2021/09/16 07:51:55;;;;;;;7.15;4.20;;;;;;;20.75;58.96;101597.91;4952540;28;124857;-66
2021/09/16 07:54:22;;;;;;;6.22;3.83;;;;;;;20.85;58.63;101598.06;4947526;28;124431;-66
2021/09/16 07:56:49;;;;;;;8.23;4.13;;;;;;;20.94;58.57;101602.75;4952381;28;114979;-66
2021/09/16 07:59:17;;;;;;;6.68;4.43;;;;;;;21.03;58.52;101611.97;4966887;28;113458;-67
2021/09/16 08:01:44;;;;;;;7.82;4.00;;;;;;;21.07;58.19;101598.13;4948961;28;123912;-68
2021/09/16 08:04:12;;;;;;;6.65;3.90;;;;;;;21.13;58.22;101597.66;4956388;28;124527;-67
2021/09/16 08:06:39;;;;;;;6.43;3.60;;;;;;;21.19;57.96;101597.19;4953035;28;114151;-67
2021/09/16 08:09:06;;;;;;;6.65;3.78;;;;;;;21.23;57.67;101596.94;4948240;28;114392;-67
2021/09/16 08:11:33;;;;;;;5.60;3.83;;;;;;;21.29;57.72;101601.88;4951270;28;124141;-66
2021/09/16 08:14:00;;;;;;;5.70;3.10;;;;;;;21.33;57.51;101604.19;4959993;28;124686;-67
2021/09/16 08:16:27;;;;;;;5.25;2.88;;;;;;;21.39;57.31;101602.84;4952392;28;114619;-67
2021/09/16 08:18:54;;;;;;;6.35;2.80;;;;;;;21.46;57.38;101601.41;4949508;28;114068;-67
2021/09/16 08:21:23;;;;;;;6.53;2.40;;;;;;;21.51;57.19;101601.91;4942267;28;124082;-67
2021/09/16 08:23:51;;;;;;;4.65;2.50;;;;;;;21.57;56.88;101595.19;4942986;28;124128;-68
2021/09/16 08:26:18;;;;;;;4.78;2.22;;;;;;;21.65;56.80;101591.88;4947673;28;114947;-68
2021/09/16 08:28:45;;;;;;;5.90;1.80;;;;;;;21.70;56.39;101600.44;4950274;28;114088;-68
2021/09/16 08:31:13;;;;;;;4.07;2.13;;;;;;;21.73;56.10;101605.59;4944017;28;123995;-68
2021/09/16 08:33:40;;;;;;;3.40;2.15;;;;;;;21.75;56.23;101604.47;4949319;28;124542;-68
2021/09/16 08:36:10;;;;;;;5.25;2.28;;;;;;;21.80;56.21;101612.22;4966809;28;114909;-68
2021/09/16 08:38:37;;;;;;;4.15;2.10;;;;;;;21.83;56.24;101606.56;4948393;28;114121;-68
2021/09/16 08:41:06;;;;;;;6.10;1.88;;;;;;;21.89;56.26;101600.69;4950878;28;124406;-67
2021/09/16 08:43:35;;;;;;;4.43;1.98;;;;;;;21.97;56.11;101614.38;4952006;28;123982;-66
2021/09/16 08:46:03;;;;;;;3.00;1.70;;;;;;;22.05;55.81;101610.22;4955571;28;115320;-66
2021/09/16 08:48:31;;;;;;;3.55;1.80;;;;;;;22.09;55.72;101612.53;4952574;28;115303;-68
2021/09/16 08:50:58;;;;;;;4.68;1.95;;;;;;;22.14;55.59;101620.25;4952361;28;124121;-68
2021/09/16 08:53:30;;;;;;;4.28;1.98;;;;;;;22.18;55.16;101624.41;4954165;28;123941;-67
2021/09/16 08:56:01;;;;;;;6.13;2.05;;;;;;;22.17;54.88;101625.41;4955215;28;113920;-68
2021/09/16 08:58:30;;;;;;;4.20;2.03;;;;;;;22.11;54.88;101620.50;4959937;28;114072;-68
2021/09/16 09:00:58;;;;;;;4.63;2.20;;;;;;;22.08;54.72;101618.06;4971989;28;123953;-68
2021/09/16 09:03:27;;;;;;;3.67;2.03;;;;;;;22.06;55.08;101618.19;4953856;28;124109;-68
2021/09/16 09:05:55;;;;;;;4.18;2.00;;;;;;;22.07;55.10;101611.78;4955796;28;114372;-67
2021/09/16 09:08:25;;;;;;;4.38;2.20;;;;;;;22.08;55.14;101609.97;4960439;28;113832;-68
2021/09/16 09:11:00;;;;;;;4.55;1.90;;;;;;;22.12;55.07;101616.84;4967205;28;123499;-68
2021/09/16 09:13:27;;;;;;;4.32;1.75;;;;;;;22.15;55.16;101611.16;4963087;28;123178;-67
2021/09/16 09:16:01;;;;;;;2.95;1.63;;;;;;;22.19;54.90;101620.75;4951372;28;114674;-68
2021/09/16 09:18:41;;;;;;;4.10;1.50;;;;;;;22.19;54.63;101627.97;4969187;28;112937;-67
2021/09/16 09:21:10;;;;;;;4.43;1.50;;;;;;;22.19;54.43;101623.44;4961628;28;124186;-68
2021/09/16 09:24:02;;;;;;;2.92;1.27;;;;;;;22.22;54.42;101623.16;4956454;28;123601;-68
2021/09/16 09:26:32;;;;;;;5.38;1.50;;;;;;;22.29;54.59;101637.91;4945997;28;114288;-68
2021/09/16 09:29:08;;;;;;;3.40;1.50;;;;;;;22.34;54.39;101630.31;4952203;28;114328;-68
2021/09/16 09:32:00;;;;;;;5.35;1.40;;;;;;;22.43;54.54;101635.91;4951839;28;124079;-67
2021/09/16 09:34:32;;;;;;;2.60;1.20;;;;;;;22.49;54.13;101630.00;4946689;28;124559;-67
2021/09/16 09:37:15;;;;;;;2.25;1.15;;;;;;;22.55;54.29;101629.50;4963826;28;115172;-66
2021/09/16 09:39:45;;;;;;;3.17;1.30;;;;;;;22.62;54.21;101625.31;4964681;28;115476;-67
2021/09/16 09:42:24;;;;;;;3.72;1.23;;;;;;;22.77;54.49;101633.09;4966692;28;124443;-66
2021/09/16 09:44:53;;;;;;;3.17;1.17;;;;;;;22.89;54.37;101632.06;4966175;28;123773;-66
2021/09/16 09:47:42;;;;;;;2.35;1.23;;;;;;;23.03;54.42;101634.47;4954968;28;114149;-67
2021/09/16 09:50:19;;;;;;;3.53;1.00;;;;;;;23.18;54.20;101636.84;4952501;28;113846;-66
2021/09/16 09:52:47;;;;;;;2.22;1.10;;;;;;;23.27;53.68;101630.66;4956785;28;123923;-66
2021/09/16 09:55:18;;;;;;;4.13;1.20;;;;;;;23.26;52.84;101640.63;4956070;28;123529;-66
2021/09/16 09:57:45;;;;;;;3.78;1.55;;;;;;;23.19;52.55;101633.16;4956538;28;115400;-65
2021/09/16 10:00:16;;;;;;;4.13;1.38;;;;;;;23.13;52.36;101634.53;4970090;28;113139;-66
2021/09/16 10:02:49;;;;;;;5.90;1.30;;;;;;;23.12;52.42;101633.69;4955172;28;124459;-66
2021/09/16 10:05:19;;;;;;;2.80;1.37;;;;;;;23.15;52.61;101637.13;4952360;28;122833;-68
2021/09/16 10:07:48;;;;;;;3.15;1.20;;;;;;;23.19;52.54;101644.84;4951216;28;114850;-70
2021/09/16 10:10:15;;;;;;;3.65;1.13;;;;;;;23.19;52.28;101652.06;4952663;28;114248;-68
2021/09/16 10:12:44;;;;;;;3.83;1.25;;;;;;;23.12;51.48;101644.50;4947323;28;124622;-69
2021/09/16 10:15:16;;;;;;;3.80;1.20;;;;;;;23.09;51.72;101661.00;4951210;28;124068;-69
2021/09/16 10:17:44;;;;;;;3.53;1.40;;;;;;;23.07;51.95;101646.72;4950752;28;114242;-69
2021/09/16 10:20:15;;;;;;;4.03;1.27;;;;;;;23.15;52.04;101650.63;4946512;28;114359;-69
2021/09/16 10:22:55;;;;;;;2.72;1.17;;;;;;;23.24;51.97;101642.56;4958003;28;124038;-70
2021/09/16 10:25:26;;;;;;;4.00;1.00;;;;;;;23.31;52.02;101648.31;4960519;28;123958;-69
2021/09/16 10:28:05;;;;;;;2.90;1.00;;;;;;;23.35;51.43;101641.66;4957098;28;115883;-69
2021/09/16 10:30:32;;;;;;;2.42;1.00;;;;;;;23.33;51.45;101646.34;4946340;28;115150;-69
2021/09/16 10:33:12;;;;;;;2.95;1.10;;;;;;;23.30;51.34;101646.59;4961149;28;123899;-69
2021/09/16 10:35:41;;;;;;;4.07;1.25;;;;;;;23.34;51.61;101648.06;4991868;22;124151;-77
2021/09/16 10:38:30;;;;;;;3.88;1.42;;;;;;;23.39;51.80;101639.53;4969942;28;114065;-79
2021/09/16 10:41:43;;;;;;;3.42;1.27;;;;;;;23.46;52.08;101644.28;4981738;28;113181;-78
2021/09/16 10:44:18;;;;;;;3.33;1.20;;;;;;;23.51;51.30;101633.94;4970655;28;123897;-78
2021/09/16 10:46:47;;;;;;;2.13;1.10;;;;;;;23.52;50.78;101630.22;4991288;28;122433;-78
2021/09/16 10:49:20;;;;;;;3.92;1.10;;;;;;;23.56;50.99;101630.81;4998718;28;114782;-78
2021/09/16 10:51:49;;;;;;;2.78;1.15;;;;;;;23.64;51.01;101632.84;4969535;28;112276;-79
2021/09/16 10:54:22;;;;;;;1.88;1.00;;;;;;;23.73;50.81;101634.72;4986295;28;122616;-79
2021/09/16 10:57:19;;;;;;;2.78;1.20;;;;;;;23.83;50.77;101635.69;4988174;28;123003;-79
2021/09/16 10:59:49;;;;;;;3.53;1.30;;;;;;;23.91;50.85;101635.00;4994403;28;114714;-79
2021/09/16 11:02:47;;;;;;;2.22;1.15;;;;;;;23.95;50.81;101630.16;4994215;28;114176;-79
2021/09/16 11:05:18;;;;;;;2.70;1.10;;;;;;;23.97;49.78;101633.59;4972256;28;124350;-79
2021/09/16 11:07:49;;;;;;;2.92;0.85;;;;;;;23.96;49.92;101638.16;4991916;28;124536;-79
2021/09/16 11:12:58;;;;;;;2.00;1.00;;;;;;;23.99;50.11;101618.91;4991116;28;113463;-79
2021/09/16 11:15:28;;;;;;;4.43;1.30;;;;;;;24.05;50.02;101617.50;4994225;28;123844;-79
2021/09/16 11:18:20;;;;;;;2.28;1.20;;;;;;;24.11;49.80;101625.09;4977154;28;123639;-78
2021/09/16 11:20:55;;;;;;;1.90;1.20;;;;;;;24.13;49.59;101623.09;4984051;28;115049;-79
2021/09/16 11:23:37;;;;;;;3.15;1.20;;;;;;;24.11;49.42;101625.09;4998974;28;113409;-78
2021/09/16 11:26:05;;;;;;;2.13;1.02;;;;;;;24.10;49.28;101634.19;4980768;28;124668;-79
2021/09/16 11:28:32;;;;;;;2.85;1.48;;;;;;;24.13;49.39;101628.53;4978442;28;123407;-79